Time;durP1;ratioP1;P1;durP2;ratioP2;P2;SDS_P1;SDS_P2;PMS_P1;PMS_P2;Temp;Humidity;BMP_temperature;BMP_pressure;BME280_temperature;BME280_humidity;BME280_pressure;Samples;Min_cycle;Max_cycle;Signal;HPM_P1;HPM_P2
2022/12/04 06:23:13;;;;;;;24.40;12.40;;;2.00;99.90;;;;;;4989708;28;20278;-86
2022/12/04 06:26:08;;;;;;;19.67;12.13;;;1.90;99.90;;;;;;4976858;28;20216;-86
2022/12/04 06:31:56;;;;;;;20.40;12.83;;;1.90;99.90;;;;;;4995895;28;20187;-86
2022/12/04 06:38:31;;;;;;;21.37;12.10;;;1.90;99.90;;;;;;4995649;28;20263;-87
2022/12/04 06:44:23;;;;;;;24.80;13.00;;;1.80;99.90;;;;;;4995850;28;20211;-86
2022/12/04 07:14:23;;;;;;;19.40;11.93;;;1.90;99.90;;;;;;6052091;23;20218;-86
2022/12/04 07:20:15;;;;;;;16.83;10.23;;;1.70;99.90;;;;;;5034714;28;20208;-87
2022/12/04 07:26:05;;;;;;;18.73;11.33;;;1.60;99.90;;;;;;4994919;28;20203;-86
2022/12/04 07:32:21;;;;;;;18.23;11.13;;;1.80;99.90;;;;;;5005783;28;20262;-87
2022/12/04 07:38:17;;;;;;;18.67;10.83;;;1.70;99.90;;;;;;5015323;28;20163;-88
2022/12/04 07:44:13;;;;;;;21.67;11.40;;;1.90;99.90;;;;;;5014407;28;20301;-88
2022/12/04 07:50:03;;;;;;;22.03;11.50;;;2.00;99.90;;;;;;5014458;28;20190;-88
2022/12/04 07:52:35;;;;;;;25.70;11.27;;;1.90;99.90;;;;;;5014034;28;20211;-89
2022/12/04 08:14:02;;;;;;;24.73;12.30;;;1.90;99.90;;;;;;4991614;28;20683;-84
2022/12/04 08:16:51;;;;;;;24.67;11.73;;;1.90;99.90;;;;;;4996146;28;20286;-87
2022/12/04 08:22:44;;;;;;;29.47;11.30;;;2.00;99.90;;;;;;4968618;28;20182;-84
2022/12/04 08:25:49;;;;;;;19.37;11.70;;;2.00;99.90;;;;;;5012529;28;20221;-85
2022/12/04 08:28:38;;;;;;;33.53;13.10;;;2.00;99.90;;;;;;5000146;28;20303;-84
2022/12/04 08:31:16;;;;;;;24.40;11.13;;;2.00;99.90;;;;;;4983143;28;20207;-84
2022/12/04 08:33:47;;;;;;;42.53;12.70;;;2.00;99.90;;;;;;4998988;28;20250;-84
2022/12/04 08:36:33;;;;;;;28.00;12.43;;;2.00;99.90;;;;;;4991200;28;20207;-86
2022/12/04 08:42:50;;;;;;;38.10;11.70;;;2.00;99.90;;;;;;5013479;28;20582;-85
2022/12/04 08:45:18;;;;;;;21.83;11.70;;;2.00;99.90;;;;;;4997525;28;20226;-84
2022/12/04 08:47:56;;;;;;;24.77;11.87;;;2.00;99.90;;;;;;4997191;28;20211;-85
2022/12/04 08:50:44;;;;;;;17.00;11.20;;;2.00;99.90;;;;;;4982714;28;20282;-84
2022/12/04 08:53:20;;;;;;;20.50;12.80;;;2.00;99.90;;;;;;4994322;28;20223;-85
2022/12/04 08:55:50;;;;;;;20.37;11.47;;;2.00;99.90;;;;;;5001542;28;20279;-87
2022/12/04 08:58:20;;;;;;;21.13;12.57;;;2.10;99.90;;;;;;5014861;28;20201;-85
2022/12/04 09:01:25;;;;;;;40.90;12.63;;;2.10;99.90;;;;;;5005387;28;20330;-84
2022/12/04 09:04:02;;;;;;;19.17;12.23;;;2.10;99.90;;;;;;4999096;28;20302;-84
2022/12/04 09:06:45;;;;;;;18.77;11.53;;;2.30;99.90;;;;;;4999167;28;20195;-84
2022/12/04 09:09:47;;;;;;;18.07;12.00;;;2.40;99.90;;;;;;5012689;28;20194;-84
2022/12/04 09:13:14;;;;;;;18.93;10.80;;;2.50;99.90;;;;;;5013568;28;20252;-85
2022/12/04 09:26:17;;;;;;;15.00;10.60;;;2.80;99.80;;;;;;5001980;28;20227;-84
2022/12/04 09:35:34;;;;;;;18.10;10.50;;;3.00;99.40;;;;;;4999890;28;20598;-84
2022/12/04 09:41:48;;;;;;;14.50;9.77;;;3.00;99.30;;;;;;4997444;28;20183;-84
2022/12/04 09:51:17;;;;;;;14.83;10.13;;;2.90;99.80;;;;;;4993216;28;20234;-86
2022/12/04 10:01:39;;;;;;;13.67;9.70;;;2.90;99.60;;;;;;5487079;22;20238;-83
2022/12/04 10:04:29;;;;;;;14.53;10.43;;;3.10;99.80;;;;;;5034172;28;20194;-86
2022/12/04 10:07:27;;;;;;;13.73;10.27;;;3.10;98.80;;;;;;5034468;28;20541;-85
2022/12/04 10:20:28;;;;;;;12.33;8.87;;;3.30;99.40;;;;;;5035135;28;20183;-86
2022/12/04 10:23:36;;;;;;;11.67;8.40;;;3.70;98.50;;;;;;5035001;28;20205;-86
2022/12/04 10:26:17;;;;;;;15.33;10.23;;;3.90;97.20;;;;;;5037092;28;20218;-86
2022/12/04 10:29:00;;;;;;;13.63;9.60;;;3.80;97.10;;;;;;5026549;28;20199;-85
2022/12/04 10:31:33;;;;;;;16.17;11.00;;;3.70;97.30;;;;;;5027308;28;20202;-85
2022/12/04 10:34:19;;;;;;;17.67;11.17;;;3.70;97.60;;;;;;5022558;28;20203;-88
2022/12/04 10:36:52;;;;;;;14.50;10.87;;;3.50;97.80;;;;;;5029624;28;20262;-87
2022/12/04 10:39:36;;;;;;;15.33;10.87;;;3.20;98.50;;;;;;5032343;28;20210;-89
2022/12/04 10:42:38;;;;;;;16.83;10.87;;;3.20;99.60;;;;;;5029975;28;20316;-87
2022/12/04 10:45:22;;;;;;;18.47;12.07;;;3.30;99.60;;;;;;5031345;28;20229;-85
2022/12/04 10:47:52;;;;;;;16.57;11.27;;;3.30;99.70;;;;;;5031525;28;20237;-87
2022/12/04 10:50:24;;;;;;;17.07;12.27;;;3.30;99.90;;;;;;5031946;28;20218;-86
2022/12/04 10:52:56;;;;;;;17.07;12.17;;;3.40;99.40;;;;;;5028729;28;20202;-86
2022/12/04 10:55:38;;;;;;;16.53;11.07;;;3.30;99.50;;;;;;5009302;28;20203;-86
2022/12/04 10:58:17;;;;;;;15.40;10.80;;;3.20;99.50;;;;;;5016474;28;20231;-85
2022/12/04 11:00:47;;;;;;;18.13;11.90;;;3.10;99.80;;;;;;5011345;28;20207;-88
2022/12/04 11:03:30;;;;;;;17.27;11.77;;;3.00;99.80;;;;;;5016531;28;20203;-86
2022/12/04 11:06:05;;;;;;;16.67;11.93;;;3.10;99.90;;;;;;5009588;28;20306;-92
2022/12/04 11:08:58;;;;;;;18.17;12.77;;;3.10;99.90;;;;;;5015788;28;20294;-90
2022/12/04 11:11:29;;;;;;;17.10;11.73;;;3.30;99.90;;;;;;5006754;28;20266;-89
2022/12/04 11:14:22;;;;;;;19.13;12.43;;;3.40;99.90;;;;;;5002692;28;20200;-89
2022/12/04 11:17:06;;;;;;;18.67;12.77;;;3.60;99.30;;;;;;5008674;28;20203;-87
2022/12/04 11:20:05;;;;;;;19.17;12.70;;;3.70;99.00;;;;;;5010252;28;20211;-89
2022/12/04 11:22:36;;;;;;;17.63;12.53;;;3.60;99.20;;;;;;5010982;28;20241;-88
2022/12/04 11:25:27;;;;;;;19.43;13.13;;;3.80;99.00;;;;;;5007977;28;20234;-90
2022/12/04 11:28:01;;;;;;;24.63;15.17;;;3.80;99.00;;;;;;5009329;28;20211;-86
2022/12/04 11:30:34;;;;;;;18.60;13.23;;;3.80;98.90;;;;;;5002502;28;20648;-88
2022/12/04 11:33:07;;;;;;;20.63;13.57;;;3.80;98.50;;;;;;5007383;28;20222;-88
2022/12/04 11:35:39;;;;;;;19.13;12.57;;;3.60;98.90;;;;;;4998284;28;20203;-88
2022/12/04 11:38:12;;;;;;;19.50;12.43;;;3.60;99.50;;;;;;5009452;28;20208;-87
2022/12/04 11:40:47;;;;;;;19.30;12.67;;;3.50;99.40;;;;;;4983019;28;20293;-87
2022/12/04 11:43:17;;;;;;;20.30;13.60;;;3.40;99.90;;;;;;5003436;28;20234;-88
2022/12/04 11:45:55;;;;;;;19.33;13.07;;;3.30;99.90;;;;;;5005211;28;20233;-88
2022/12/04 11:48:23;;;;;;;17.83;12.13;;;3.30;99.90;;;;;;5005919;28;20204;-88
2022/12/04 11:50:57;;;;;;;17.37;11.87;;;3.40;99.90;;;;;;4999308;28;20226;-89
2022/12/04 11:53:40;;;;;;;18.00;12.37;;;3.60;99.90;;;;;;5008642;28;20219;-89
2022/12/04 11:56:22;;;;;;;16.93;11.67;;;3.60;99.60;;;;;;5003741;28;20676;-87
2022/12/04 11:59:23;;;;;;;19.00;12.80;;;3.80;99.00;;;;;;5003680;28;20206;-88
2022/12/04 12:01:59;;;;;;;21.33;13.43;;;3.70;98.90;;;;;;5001627;28;20305;-89
2022/12/04 12:08:06;;;;;;;20.00;12.17;;;3.80;99.70;;;;;;5002649;28;20241;-88
2022/12/04 12:11:09;;;;;;;22.63;13.87;;;3.70;99.40;;;;;;5010499;28;20334;-89
2022/12/04 12:14:08;;;;;;;19.43;12.87;;;3.50;99.50;;;;;;5016784;28;20203;-87
2022/12/04 12:16:57;;;;;;;21.37;13.80;;;3.50;99.90;;;;;;5011391;28;20196;-87
2022/12/04 12:23:12;;;;;;;20.33;13.60;;;3.30;99.90;;;;;;5003864;28;20197;-89
2022/12/04 12:25:48;;;;;;;21.17;14.10;;;3.60;99.90;;;;;;4961923;28;20330;-87
2022/12/04 12:28:29;;;;;;;22.33;14.23;;;3.70;99.90;;;;;;4956801;28;20270;-87
2022/12/04 12:31:13;;;;;;;23.13;14.47;;;3.50;99.90;;;;;;4957655;28;20280;-88
2022/12/04 12:33:47;;;;;;;22.03;14.73;;;3.40;99.90;;;;;;4965335;28;20200;-87
2022/12/04 12:36:15;;;;;;;23.60;14.30;;;3.40;99.90;;;;;;4962986;28;20295;-86
2022/12/04 12:38:48;;;;;;;20.50;13.50;;;3.30;99.90;;;;;;4962589;28;20749;-86
2022/12/04 12:41:18;;;;;;;19.40;14.13;;;3.50;99.90;;;;;;4965935;28;20228;-87
2022/12/04 12:43:54;;;;;;;19.97;14.17;;;3.60;99.90;;;;;;4972358;28;20243;-86
2022/12/04 12:46:29;;;;;;;19.27;12.97;;;3.80;99.90;;;;;;4968353;28;20288;-86
2022/12/04 12:49:02;;;;;;;21.57;13.97;;;3.80;99.90;;;;;;4966451;28;20208;-88
2022/12/04 12:51:36;;;;;;;20.60;13.50;;;4.00;99.70;;;;;;4950819;28;20891;-88
2022/12/04 12:54:13;;;;;;;21.07;13.87;;;4.00;99.10;;;;;;4963040;28;20298;-86
2022/12/04 12:56:46;;;;;;;20.93;13.97;;;3.90;99.20;;;;;;4961096;28;20208;-87
2022/12/04 12:59:19;;;;;;;20.37;14.07;;;3.80;99.80;;;;;;4960253;28;20292;-87
2022/12/04 13:01:52;;;;;;;24.63;15.50;;;3.70;99.90;;;;;;4964586;28;20733;-86
2022/12/04 13:04:23;;;;;;;21.77;14.37;;;3.60;99.90;;;;;;5007612;28;20207;-86
2022/12/04 13:07:04;;;;;;;23.73;15.17;;;3.60;99.90;;;;;;4998942;28;20255;-87
2022/12/04 13:09:35;;;;;;;21.70;14.53;;;3.70;99.90;;;;;;5005873;28;20286;-87
2022/12/04 13:12:06;;;;;;;21.70;14.67;;;3.70;99.90;;;;;;5013837;28;20215;-87
2022/12/04 13:14:33;;;;;;;20.37;13.67;;;3.70;99.90;;;;;;5004998;28;20207;-87
2022/12/04 13:17:05;;;;;;;20.77;13.70;;;3.70;99.90;;;;;;5011567;28;20203;-88
2022/12/04 13:19:40;;;;;;;17.00;12.13;;;3.70;99.90;;;;;;5012393;28;20195;-87
2022/12/04 13:22:16;;;;;;;18.03;12.53;;;3.80;99.90;;;;;;5008807;28;20207;-87
2022/12/04 13:25:13;;;;;;;18.53;12.33;;;3.80;99.90;;;;;;5001859;28;20199;-88
2022/12/04 13:27:50;;;;;;;21.77;13.87;;;3.80;99.90;;;;;;4945603;28;20682;-89
2022/12/04 13:30:20;;;;;;;18.03;12.50;;;3.70;99.90;;;;;;4943282;28;20207;-87
2022/12/04 13:33:18;;;;;;;20.23;13.33;;;3.60;99.90;;;;;;4954454;28;20220;-87
2022/12/04 13:36:10;;;;;;;16.43;12.00;;;3.80;99.90;;;;;;4947832;28;20209;-86
2022/12/04 13:39:03;;;;;;;18.73;12.70;;;4.30;99.90;;;;;;4944179;28;20217;-88
2022/12/04 13:45:26;;;;;;;22.13;13.93;;;4.10;98.10;;;;;;4964253;28;20732;-89
2022/12/04 13:54:38;;;;;;;18.87;12.70;;;4.20;98.10;;;;;;4956074;28;20237;-89
2022/12/04 13:57:21;;;;;;;18.30;12.67;;;4.00;99.20;;;;;;4956899;28;20200;-89
2022/12/04 13:59:50;;;;;;;19.63;13.13;;;3.90;99.30;;;;;;4938949;29;20224;-90
2022/12/04 14:02:27;;;;;;;18.03;12.33;;;3.70;99.90;;;;;;4968895;28;20697;-89
2022/12/04 14:05:04;;;;;;;20.97;13.23;;;3.80;99.90;;;;;;4978839;28;20196;-89
2022/12/04 14:07:33;;;;;;;18.63;12.93;;;3.80;99.90;;;;;;4990454;28;20717;-89
2022/12/04 14:10:34;;;;;;;23.43;14.37;;;3.80;99.90;;;;;;5011366;28;20229;-89
2022/12/04 14:13:09;;;;;;;18.50;12.83;;;3.70;99.90;;;;;;5008450;28;20199;-90
2022/12/04 14:15:38;;;;;;;20.40;13.37;;;3.60;99.90;;;;;;5009609;28;20206;-91
2022/12/04 14:18:20;;;;;;;19.40;13.63;;;3.70;99.90;;;;;;5007783;28;20203;-90
2022/12/04 14:20:59;;;;;;;19.70;13.07;;;4.10;99.90;;;;;;5007510;28;20269;-90
2022/12/04 14:26:55;;;;;;;25.43;18.20;;;4.00;99.30;;;;;;5001950;28;20715;-90
2022/12/04 14:29:48;;;;;;;24.13;15.70;;;3.80;99.90;;;;;;5005638;28;20551;-90
2022/12/04 14:32:22;;;;;;;23.90;15.63;;;3.70;99.90;;;;;;5000731;28;20214;-90
2022/12/04 14:35:30;;;;;;;24.00;16.07;;;3.80;99.90;;;;;;5003390;28;20203;-90
2022/12/04 14:38:21;;;;;;;21.93;15.00;;;3.80;99.90;;;;;;4997844;28;20227;-90
2022/12/04 14:40:51;;;;;;;20.87;14.63;;;3.80;99.90;;;;;;5006370;28;20218;-90
2022/12/04 14:43:21;;;;;;;26.10;16.03;;;3.90;99.90;;;;;;5007555;28;20218;-89
2022/12/04 14:46:27;;;;;;;21.40;15.23;;;3.90;99.90;;;;;;5007600;28;20322;-90
2022/12/04 14:49:27;;;;;;;24.27;15.60;;;3.70;99.90;;;;;;5006329;28;20199;-90
2022/12/04 14:52:08;;;;;;;24.73;16.00;;;3.80;99.90;;;;;;5001187;28;20199;-89
2022/12/04 14:54:44;;;;;;;25.13;15.90;;;3.70;99.90;;;;;;5005197;28;20704;-89
2022/12/04 14:57:33;;;;;;;23.67;15.60;;;3.80;99.90;;;;;;5000045;28;20690;-90
2022/12/04 15:00:00;;;;;;;22.80;15.80;;;3.80;99.90;;;;;;5006205;28;20250;-90
2022/12/04 15:02:46;;;;;;;22.67;15.20;;;3.80;99.90;;;;;;5005612;28;20207;-91
2022/12/04 15:05:29;;;;;;;19.97;13.90;;;3.80;99.90;;;;;;5005146;28;20664;-88
2022/12/04 15:08:05;;;;;;;18.90;13.57;;;3.90;99.90;;;;;;5005992;28;20708;-87
2022/12/04 15:13:30;;;;;;;24.07;14.20;;;4.00;99.90;;;;;;5001219;28;20218;-88
2022/12/04 15:16:03;;;;;;;23.73;15.00;;;4.10;99.90;;;;;;5000523;28;20213;-88
2022/12/04 15:18:32;;;;;;;24.47;15.50;;;4.10;99.90;;;;;;5003035;28;20207;-88
2022/12/04 15:21:01;;;;;;;25.20;16.77;;;3.90;99.90;;;;;;5001162;28;20601;-87
2022/12/04 15:23:31;;;;;;;25.90;17.33;;;3.80;99.90;;;;;;5001740;28;20203;-88
2022/12/04 15:26:02;;;;;;;26.30;17.10;;;3.80;99.90;;;;;;4996441;28;20264;-88
2022/12/04 15:28:36;;;;;;;29.77;17.83;;;3.80;99.90;;;;;;5001961;28;20207;-87
2022/12/04 15:31:10;;;;;;;31.83;18.80;;;3.70;99.90;;;;;;4989094;28;20262;-88
2022/12/04 15:33:40;;;;;;;31.07;17.80;;;3.80;99.90;;;;;;4996828;28;20196;-87
2022/12/04 15:36:12;;;;;;;29.53;17.70;;;3.80;99.90;;;;;;4977592;28;20675;-86
2022/12/04 15:38:40;;;;;;;27.10;18.23;;;3.70;99.90;;;;;;4995965;28;20522;-88
2022/12/04 15:41:29;;;;;;;29.93;18.10;;;3.70;99.90;;;;;;5003507;28;20306;-89
2022/12/04 15:43:56;;;;;;;32.10;19.07;;;3.70;99.90;;;;;;4998716;28;20203;-86
2022/12/04 15:46:26;;;;;;;33.10;18.53;;;3.70;99.90;;;;;;5001520;28;20293;-87
2022/12/04 15:49:05;;;;;;;32.73;19.33;;;3.60;99.90;;;;;;4999035;28;20207;-87
2022/12/04 15:51:38;;;;;;;34.23;19.90;;;3.60;99.90;;;;;;5006662;28;20286;-87
2022/12/04 15:54:12;;;;;;;32.23;18.97;;;3.50;99.90;;;;;;5001821;28;20227;-87
2022/12/04 15:56:41;;;;;;;33.47;19.40;;;3.50;99.90;;;;;;4996671;28;20682;-88
2022/12/04 15:59:17;;;;;;;31.60;18.73;;;3.50;99.90;;;;;;4996838;28;20262;-85
2022/12/04 16:01:44;;;;;;;35.07;19.70;;;3.50;99.90;;;;;;4997354;28;20213;-85
2022/12/04 16:04:21;;;;;;;31.23;17.97;;;3.60;99.90;;;;;;5003608;28;20210;-87
2022/12/04 16:06:50;;;;;;;29.37;17.53;;;3.50;99.90;;;;;;5000350;28;20231;-88
2022/12/04 16:09:22;;;;;;;33.63;17.80;;;3.50;99.90;;;;;;4999279;28;20218;-87
2022/12/04 16:12:03;;;;;;;28.50;16.43;;;3.50;99.90;;;;;;4982655;28;20215;-87
2022/12/04 16:14:33;;;;;;;30.10;16.80;;;3.50;99.90;;;;;;5000553;28;20290;-84
2022/12/04 16:17:01;;;;;;;28.07;16.87;;;3.30;99.90;;;;;;5000872;28;20245;-85
2022/12/04 16:19:31;;;;;;;28.83;15.73;;;3.30;99.90;;;;;;5003314;28;20209;-86
2022/12/04 16:22:22;;;;;;;24.97;15.03;;;3.30;99.90;;;;;;5003735;28;20254;-86
2022/12/04 16:24:49;;;;;;;30.20;16.03;;;3.30;99.90;;;;;;4996564;28;20218;-87
2022/12/04 16:27:21;;;;;;;24.50;15.20;;;3.30;99.90;;;;;;4999984;28;20243;-87
2022/12/04 16:29:48;;;;;;;26.27;15.97;;;3.30;99.90;;;;;;4999311;28;20209;-89
2022/12/04 16:32:18;;;;;;;25.93;15.37;;;3.30;99.90;;;;;;5000671;28;20203;-88
2022/12/04 16:34:46;;;;;;;24.40;15.07;;;3.20;99.90;;;;;;4998424;28;20203;-87
2022/12/04 16:37:15;;;;;;;23.57;14.00;;;3.20;99.90;;;;;;4998275;28;20683;-87
2022/12/04 16:40:09;;;;;;;23.60;13.70;;;3.10;99.90;;;;;;4997412;28;20207;-89
2022/12/04 16:42:39;;;;;;;26.60;14.87;;;3.10;99.90;;;;;;4999182;28;20284;-87
2022/12/04 16:45:21;;;;;;;22.00;13.57;;;3.10;99.90;;;;;;5000936;28;20581;-86
2022/12/04 16:47:51;;;;;;;22.50;13.13;;;3.10;99.90;;;;;;5010507;28;20302;-87
2022/12/04 16:50:38;;;;;;;19.50;12.30;;;3.10;99.90;;;;;;5008826;28;20226;-83
2022/12/04 16:53:09;;;;;;;21.30;12.70;;;3.10;99.90;;;;;;5006964;28;20315;-85
2022/12/04 16:55:38;;;;;;;21.27;13.00;;;3.10;99.90;;;;;;5006002;28;20310;-85
2022/12/04 16:58:10;;;;;;;17.67;11.63;;;3.10;99.90;;;;;;5011059;28;20845;-85
2022/12/04 17:00:56;;;;;;;17.13;11.20;;;3.10;99.90;;;;;;5016146;28;20207;-82
2022/12/04 17:03:28;;;;;;;16.97;11.10;;;3.10;99.90;;;;;;4992338;28;20279;-83
2022/12/04 17:06:08;;;;;;;15.77;10.90;;;3.10;99.90;;;;;;4996661;28;20206;-83
2022/12/04 17:08:35;;;;;;;15.90;10.77;;;3.00;99.90;;;;;;4998926;28;20249;-85
2022/12/04 17:11:17;;;;;;;16.50;10.83;;;3.00;99.90;;;;;;4990741;28;20205;-84
2022/12/04 17:13:45;;;;;;;16.27;10.53;;;3.10;99.90;;;;;;4995886;28;20212;-83
2022/12/04 17:16:15;;;;;;;16.03;10.50;;;3.10;99.90;;;;;;4986997;28;20208;-84
2022/12/04 17:18:42;;;;;;;15.57;10.30;;;3.30;99.90;;;;;;4988922;28;20672;-85
2022/12/04 17:21:11;;;;;;;14.17;9.80;;;3.20;99.90;;;;;;4991390;28;20574;-85
2022/12/04 17:23:38;;;;;;;14.00;9.83;;;3.30;99.90;;;;;;4989852;28;20283;-85
2022/12/04 17:26:11;;;;;;;15.80;10.37;;;3.30;99.90;;;;;;4985674;28;20199;-84
2022/12/04 17:28:38;;;;;;;14.97;10.27;;;3.30;99.90;;;;;;4988439;28;20228;-84
2022/12/04 17:31:17;;;;;;;15.90;10.77;;;3.30;99.90;;;;;;4985549;28;20282;-85
2022/12/04 17:33:45;;;;;;;15.87;10.10;;;3.30;99.90;;;;;;4982689;28;20213;-84
2022/12/04 17:36:14;;;;;;;17.07;11.10;;;3.40;99.90;;;;;;4984095;28;20244;-87
2022/12/04 17:38:44;;;;;;;16.30;10.93;;;3.40;99.90;;;;;;4986733;28;20224;-85
2022/12/04 17:41:15;;;;;;;17.20;11.57;;;3.40;99.90;;;;;;4982932;28;20283;-85
2022/12/04 17:43:43;;;;;;;19.50;11.57;;;3.40;99.90;;;;;;4982555;28;20202;-84
2022/12/04 17:46:15;;;;;;;20.27;10.67;;;3.40;99.90;;;;;;4983458;28;20216;-85
2022/12/04 17:48:45;;;;;;;17.03;11.20;;;3.30;99.90;;;;;;4988096;28;20251;-85
2022/12/04 17:51:17;;;;;;;17.00;11.07;;;3.30;99.90;;;;;;4987396;28;20266;-86
2022/12/04 17:53:44;;;;;;;18.57;11.07;;;3.30;99.90;;;;;;4986509;28;20226;-85
2022/12/04 17:56:16;;;;;;;18.13;11.90;;;3.40;99.90;;;;;;4987202;28;20600;-85
2022/12/04 17:58:49;;;;;;;16.43;10.73;;;3.40;99.90;;;;;;4979692;28;20287;-85
2022/12/04 18:01:21;;;;;;;17.40;11.23;;;3.50;99.90;;;;;;4989860;28;20210;-84
2022/12/04 18:03:50;;;;;;;17.67;11.30;;;3.50;99.90;;;;;;5006149;28;20207;-84
2022/12/04 18:06:22;;;;;;;16.60;10.43;;;3.50;99.90;;;;;;4999929;28;20207;-87
2022/12/04 18:08:52;;;;;;;16.50;11.10;;;3.50;99.90;;;;;;5002980;28;20219;-87
2022/12/04 18:11:20;;;;;;;15.37;10.73;;;3.60;99.90;;;;;;5005262;28;20222;-87
2022/12/04 18:13:58;;;;;;;15.40;10.67;;;3.50;99.90;;;;;;4994724;28;20664;-87
2022/12/04 18:16:28;;;;;;;16.97;10.60;;;3.50;99.90;;;;;;5003328;28;20811;-87
2022/12/04 18:18:57;;;;;;;15.40;10.57;;;3.60;99.90;;;;;;5006660;28;20294;-87
2022/12/04 18:21:27;;;;;;;15.47;10.57;;;3.60;99.90;;;;;;5009514;28;20203;-87
2022/12/04 18:24:05;;;;;;;14.70;10.30;;;3.60;99.30;;;;;;5001304;28;20251;-88
2022/12/04 18:26:34;;;;;;;16.13;10.83;;;3.70;99.10;;;;;;5005088;28;20200;-88
2022/12/04 18:29:05;;;;;;;16.80;11.33;;;3.70;99.00;;;;;;5009379;28;20207;-87
2022/12/04 18:32:10;;;;;;;20.03;11.57;;;3.60;99.00;;;;;;5018919;28;20486;-86
2022/12/04 18:38:09;;;;;;;17.80;11.20;;;3.30;99.90;;;;;;5023616;28;20241;-88
2022/12/04 18:41:09;;;;;;;17.53;11.20;;;3.30;99.90;;;;;;4988567;28;20229;-85
2022/12/04 18:46:58;;;;;;;17.90;11.50;;;3.30;99.90;;;;;;5021357;28;20691;-87
2022/12/04 18:49:27;;;;;;;16.43;11.17;;;3.30;99.90;;;;;;5020336;28;20231;-89
2022/12/04 18:52:09;;;;;;;16.50;11.17;;;3.30;99.90;;;;;;5013821;28;20212;-89
2022/12/04 18:54:38;;;;;;;16.87;11.23;;;3.40;99.90;;;;;;5033138;23;20702;-87
2022/12/04 18:57:11;;;;;;;15.77;10.00;;;3.40;99.90;;;;;;5028390;28;20211;-89
2022/12/04 18:59:38;;;;;;;15.73;10.30;;;3.40;99.90;;;;;;5020771;28;20203;-88
2022/12/04 19:02:16;;;;;;;15.33;10.53;;;3.40;99.90;;;;;;5007817;28;20199;-88
2022/12/04 19:04:46;;;;;;;15.97;10.33;;;3.40;99.50;;;;;;5016524;28;20217;-87
2022/12/04 19:07:12;;;;;;;15.40;10.17;;;3.40;99.40;;;;;;5016706;28;20346;-88
2022/12/04 19:09:41;;;;;;;17.47;11.00;;;3.50;99.80;;;;;;5015696;28;20215;-87
2022/12/04 19:12:08;;;;;;;16.70;10.80;;;3.50;99.20;;;;;;5024043;28;20642;-87
2022/12/04 19:14:36;;;;;;;15.27;10.90;;;3.50;99.50;;;;;;4991413;28;20287;-87
2022/12/04 19:17:04;;;;;;;17.73;11.23;;;3.40;99.60;;;;;;5026758;28;20207;-87
2022/12/04 19:19:31;;;;;;;17.90;11.13;;;3.40;99.50;;;;;;5022953;28;20210;-87
2022/12/04 19:22:02;;;;;;;20.43;12.37;;;3.40;99.40;;;;;;5026697;28;20302;-88
2022/12/04 19:24:29;;;;;;;20.23;12.00;;;3.20;99.90;;;;;;5023950;28;20212;-87
2022/12/04 19:26:55;;;;;;;20.17;11.90;;;3.10;99.90;;;;;;5010372;28;20211;-86
2022/12/04 19:29:23;;;;;;;18.10;11.77;;;3.10;99.90;;;;;;5008006;28;20199;-87
2022/12/04 19:31:50;;;;;;;20.37;12.43;;;3.00;99.90;;;;;;5014306;28;20229;-87
2022/12/04 19:34:17;;;;;;;22.87;13.27;;;2.90;99.90;;;;;;5029403;28;20285;-86
2022/12/04 19:36:44;;;;;;;18.90;12.00;;;2.90;99.90;;;;;;5023525;28;20289;-88
2022/12/04 19:39:13;;;;;;;19.83;12.53;;;3.00;99.90;;;;;;5029656;28;20252;-87
2022/12/04 19:41:40;;;;;;;19.93;12.83;;;3.00;99.90;;;;;;5012321;28;20680;-87
2022/12/04 19:44:09;;;;;;;18.53;12.37;;;3.10;99.90;;;;;;5013537;28;20202;-87
2022/12/04 19:46:36;;;;;;;21.43;13.17;;;3.10;99.90;;;;;;5020392;28;20279;-87
2022/12/04 19:49:05;;;;;;;20.07;12.67;;;3.10;99.90;;;;;;5031916;28;20233;-88
2022/12/04 19:51:32;;;;;;;19.47;12.13;;;3.10;99.90;;;;;;5022803;28;20265;-88
2022/12/04 19:54:01;;;;;;;17.20;11.17;;;3.10;99.90;;;;;;5015835;28;20330;-87
2022/12/04 19:56:34;;;;;;;18.20;11.97;;;3.10;99.90;;;;;;5023901;28;20203;-87
2022/12/04 19:59:04;;;;;;;16.80;11.47;;;3.00;99.90;;;;;;5024528;28;20210;-86
2022/12/04 20:01:33;;;;;;;17.87;11.90;;;3.00;99.90;;;;;;5023085;28;20264;-86
2022/12/04 20:04:06;;;;;;;16.53;11.10;;;3.10;99.90;;;;;;5025507;28;20210;-86
2022/12/04 20:06:44;;;;;;;17.13;11.60;;;3.10;99.90;;;;;;5023100;28;20211;-86
2022/12/04 20:09:24;;;;;;;20.67;12.07;;;3.10;99.90;;;;;;5017400;28;20314;-89
2022/12/04 20:11:56;;;;;;;19.20;12.33;;;3.10;99.90;;;;;;5017224;28;20285;-88
2022/12/04 20:14:23;;;;;;;16.93;11.43;;;3.20;99.90;;;;;;5017925;28;20217;-87
2022/12/04 20:16:51;;;;;;;18.97;11.90;;;3.10;99.90;;;;;;5018189;28;20683;-87
2022/12/04 20:19:19;;;;;;;17.93;12.00;;;3.10;99.90;;;;;;5016706;28;20286;-88
2022/12/04 20:21:46;;;;;;;18.37;11.97;;;3.00;99.90;;;;;;5024550;28;20293;-87
2022/12/04 20:24:16;;;;;;;20.10;12.63;;;3.00;99.90;;;;;;5019817;28;20663;-87
2022/12/04 20:26:45;;;;;;;19.27;12.07;;;3.00;99.90;;;;;;5022379;28;20202;-87
2022/12/04 20:29:24;;;;;;;18.17;11.30;;;3.00;99.90;;;;;;5027897;28;20332;-87
2022/12/04 20:31:51;;;;;;;17.63;11.17;;;3.10;99.90;;;;;;5025883;28;20305;-87
2022/12/04 20:34:19;;;;;;;15.87;11.07;;;3.20;99.90;;;;;;5024164;28;20206;-88
2022/12/04 20:36:48;;;;;;;20.20;11.73;;;3.20;99.90;;;;;;5022836;28;20649;-87
2022/12/04 20:39:16;;;;;;;16.67;11.40;;;3.20;99.90;;;;;;5022238;28;20466;-87
2022/12/04 20:41:43;;;;;;;18.37;11.47;;;3.20;99.90;;;;;;5025124;28;20567;-87
2022/12/04 20:44:15;;;;;;;17.33;11.07;;;3.10;99.90;;;;;;5019457;28;20206;-87
2022/12/04 20:46:42;;;;;;;16.97;11.03;;;3.00;99.80;;;;;;5021600;28;20281;-87
2022/12/04 20:49:14;;;;;;;16.40;10.73;;;3.10;99.90;;;;;;5021552;28;20310;-88
2022/12/04 20:51:43;;;;;;;15.27;10.23;;;3.00;99.90;;;;;;5024677;28;20207;-87
2022/12/04 20:54:14;;;;;;;14.13;9.67;;;3.00;99.80;;;;;;5018905;28;20698;-87
2022/12/04 20:56:41;;;;;;;14.50;9.50;;;2.90;99.80;;;;;;5027880;28;20645;-87
2022/12/04 20:59:11;;;;;;;14.23;10.30;;;3.00;99.80;;;;;;5020512;28;20641;-87
2022/12/04 21:01:40;;;;;;;14.67;9.73;;;2.90;99.80;;;;;;5021110;28;20222;-87
2022/12/04 21:04:08;;;;;;;16.07;9.90;;;2.80;99.90;;;;;;4999407;28;20277;-86
2022/12/04 21:06:45;;;;;;;13.73;9.60;;;2.90;99.90;;;;;;5006417;28;20209;-87
2022/12/04 21:09:14;;;;;;;15.67;10.50;;;2.90;99.90;;;;;;5003271;28;20229;-87
2022/12/04 21:11:43;;;;;;;12.57;9.27;;;2.80;99.90;;;;;;5006115;28;20323;-87
2022/12/04 21:16:59;;;;;;;13.37;9.47;;;3.00;99.80;;;;;;5007208;28;20586;-87
2022/12/04 21:19:27;;;;;;;13.53;9.40;;;3.00;99.80;;;;;;4986817;28;20218;-87
2022/12/04 21:21:54;;;;;;;14.07;9.83;;;3.00;99.50;;;;;;5009451;28;20206;-86
2022/12/04 21:24:25;;;;;;;14.33;9.50;;;3.00;99.80;;;;;;5008186;28;20298;-87
2022/12/04 21:26:52;;;;;;;12.83;8.87;;;2.90;99.80;;;;;;5005949;28;20203;-87
2022/12/04 21:29:22;;;;;;;13.00;9.07;;;2.90;99.80;;;;;;5007171;28;20242;-87
2022/12/04 21:31:53;;;;;;;13.30;9.63;;;2.90;99.80;;;;;;4988435;28;20774;-87
2022/12/04 21:39:52;;;;;;;14.60;9.67;;;3.20;99.90;;;;;;5010934;28;20746;-88
2022/12/04 21:42:33;;;;;;;13.63;10.13;;;3.10;99.60;;;;;;5000696;28;20294;-87
2022/12/04 21:45:06;;;;;;;13.80;9.53;;;3.00;99.80;;;;;;4991113;28;20294;-87
2022/12/04 21:47:34;;;;;;;14.10;9.57;;;3.00;99.80;;;;;;5008180;28;20683;-87
2022/12/04 21:50:04;;;;;;;16.73;10.53;;;3.10;99.80;;;;;;5004894;28;20207;-87
2022/12/04 21:52:34;;;;;;;14.77;9.97;;;3.30;99.50;;;;;;5008028;28;20273;-87
2022/12/04 21:57:54;;;;;;;15.47;11.00;;;3.10;99.50;;;;;;4996618;28;20723;-87
2022/12/04 22:00:23;;;;;;;14.97;10.70;;;3.10;99.80;;;;;;4997037;28;20240;-87
2022/12/04 22:02:54;;;;;;;14.17;10.07;;;3.10;99.80;;;;;;5000778;28;20319;-87
2022/12/04 22:08:12;;;;;;;14.07;10.03;;;3.10;99.40;;;;;;4978494;28;20242;-87
2022/12/04 22:10:41;;;;;;;15.00;9.73;;;3.10;99.40;;;;;;4995001;28;20819;-87
2022/12/04 22:13:08;;;;;;;14.37;10.30;;;3.20;99.00;;;;;;4998316;28;20237;-88
2022/12/04 22:15:39;;;;;;;14.37;9.37;;;3.30;98.80;;;;;;4996411;28;20265;-88
2022/12/04 22:21:13;;;;;;;12.90;10.13;;;3.10;99.20;;;;;;4997675;28;20226;-87
2022/12/04 22:23:40;;;;;;;14.00;10.40;;;3.20;98.40;;;;;;4998194;28;20219;-87
2022/12/04 22:26:09;;;;;;;14.33;10.07;;;3.00;98.50;;;;;;4995801;28;20225;-88
2022/12/04 22:28:36;;;;;;;14.90;10.50;;;3.00;99.00;;;;;;4994882;28;20699;-87
2022/12/04 22:31:04;;;;;;;16.47;10.43;;;3.00;98.90;;;;;;5000240;28;20264;-87
2022/12/04 22:33:32;;;;;;;16.63;10.53;;;2.90;99.10;;;;;;4994332;28;20223;-87
2022/12/04 22:36:05;;;;;;;14.60;10.57;;;2.90;99.20;;;;;;4995110;28;20671;-87
2022/12/04 22:38:32;;;;;;;13.57;9.33;;;2.90;99.00;;;;;;4991962;28;20601;-87